NY13 weather

D'Amico Airport
Lyons, New York, United States

Public forecast

Using degrees Fahrenheit for public forecast. Weather courtesy of forecast.io.

METAR (pilot weather report)

Closest report is Penn Yan Airport, 27.4 nm (50.8 km) S. Retrieved 2019/05/25 19:53 UTC (33 minutes ago):

KPEO 251953Z AUTO 17013G17KT 10SM -RA FEW044 SCT080 BKN095 26/16 A2991 RMK AO2 RAB52 SLP122 P0000 T02560156

TAF (pilot weather forecast)

Closest forecast is Greater Rochester International Airport, 29.9 nm (55.4 km) W. Retrieved 2019/05/25 18:36 UTC (2 hours ago):

TAF KROC 251735Z 2518/2618 16010KT P6SM SCT040 FM260000 23008KT P6SM OVC200 TEMPO 2600/2602 5SM -TSRA BKN040CB FM261200 27009KT P6SM BKN025 FM261300 27009KT P6SM SCT100